sensor_id;sensor_type;location;lat;lon;timestamp;temperature;humidity
9987;DHT22;5033;46.310;11.214;2023-02-15T00:01:32;7.60;94.30
9987;DHT22;5033;46.310;11.214;2023-02-15T00:03:59;7.60;94.20
9987;DHT22;5033;46.310;11.214;2023-02-15T00:06:26;7.60;94.20
9987;DHT22;5033;46.310;11.214;2023-02-15T00:08:53;7.60;94.30
9987;DHT22;5033;46.310;11.214;2023-02-15T00:11:22;7.50;94.40
9987;DHT22;5033;46.310;11.214;2023-02-15T00:14:03;7.50;94.50
9987;DHT22;5033;46.310;11.214;2023-02-15T00:16:31;7.40;94.60
9987;DHT22;5033;46.310;11.214;2023-02-15T00:18:58;7.20;94.50
9987;DHT22;5033;46.310;11.214;2023-02-15T00:21:27;7.20;94.60
9987;DHT22;5033;46.310;11.214;2023-02-15T00:23:55;7.10;94.60
9987;DHT22;5033;46.310;11.214;2023-02-15T00:26:24;7.10;94.70
9987;DHT22;5033;46.310;11.214;2023-02-15T00:28:51;7.00;94.90
9987;DHT22;5033;46.310;11.214;2023-02-15T00:31:18;7.00;95.00
9987;DHT22;5033;46.310;11.214;2023-02-15T00:33:46;6.90;95.10
9987;DHT22;5033;46.310;11.214;2023-02-15T00:36:13;6.90;95.20
9987;DHT22;5033;46.310;11.214;2023-02-15T00:38:40;6.90;95.40
9987;DHT22;5033;46.310;11.214;2023-02-15T00:41:08;6.90;95.50
9987;DHT22;5033;46.310;11.214;2023-02-15T00:43:37;6.90;95.80
9987;DHT22;5033;46.310;11.214;2023-02-15T00:46:05;6.80;95.40
9987;DHT22;5033;46.310;11.214;2023-02-15T00:48:32;6.80;95.30
9987;DHT22;5033;46.310;11.214;2023-02-15T00:51:00;6.90;95.40
9987;DHT22;5033;46.310;11.214;2023-02-15T00:53:28;6.80;95.60
9987;DHT22;5033;46.310;11.214;2023-02-15T00:55:55;6.90;95.50
9987;DHT22;5033;46.310;11.214;2023-02-15T00:58:22;6.80;95.30
9987;DHT22;5033;46.310;11.214;2023-02-15T01:00:51;6.90;95.40
9987;DHT22;5033;46.310;11.214;2023-02-15T01:03:20;6.90;95.50
9987;DHT22;5033;46.310;11.214;2023-02-15T01:05:48;6.90;95.50
9987;DHT22;5033;46.310;11.214;2023-02-15T01:08:16;6.90;95.50
9987;DHT22;5033;46.310;11.214;2023-02-15T01:10:43;6.90;95.40
9987;DHT22;5033;46.310;11.214;2023-02-15T01:13:14;6.90;95.50
9987;DHT22;5033;46.310;11.214;2023-02-15T01:15:42;6.90;95.70
9987;DHT22;5033;46.310;11.214;2023-02-15T01:18:11;6.90;95.50
9987;DHT22;5033;46.310;11.214;2023-02-15T01:20:39;6.90;95.40
9987;DHT22;5033;46.310;11.214;2023-02-15T01:23:07;6.90;95.30
9987;DHT22;5033;46.310;11.214;2023-02-15T01:25:35;6.90;95.40
9987;DHT22;5033;46.310;11.214;2023-02-15T01:28:03;6.80;95.50
9987;DHT22;5033;46.310;11.214;2023-02-15T01:30:31;6.80;95.50
9987;DHT22;5033;46.310;11.214;2023-02-15T01:32:59;6.70;95.60
9987;DHT22;5033;46.310;11.214;2023-02-15T01:35:29;6.70;95.60
9987;DHT22;5033;46.310;11.214;2023-02-15T01:37:56;6.60;95.90
9987;DHT22;5033;46.310;11.214;2023-02-15T01:40:24;6.40;96.00
9987;DHT22;5033;46.310;11.214;2023-02-15T01:42:51;6.30;96.10
9987;DHT22;5033;46.310;11.214;2023-02-15T01:45:22;6.30;96.20
9987;DHT22;5033;46.310;11.214;2023-02-15T01:47:52;6.20;96.30
9987;DHT22;5033;46.310;11.214;2023-02-15T01:50:24;6.20;96.40
9987;DHT22;5033;46.310;11.214;2023-02-15T01:52:57;6.20;96.60
9987;DHT22;5033;46.310;11.214;2023-02-15T01:55:29;6.30;96.70
9987;DHT22;5033;46.310;11.214;2023-02-15T01:57:57;6.30;96.70
9987;DHT22;5033;46.310;11.214;2023-02-15T02:00:25;6.30;97.10
9987;DHT22;5033;46.310;11.214;2023-02-15T02:02:54;6.30;96.40
9987;DHT22;5033;46.310;11.214;2023-02-15T02:05:22;6.30;96.50
9987;DHT22;5033;46.310;11.214;2023-02-15T02:07:51;6.20;96.50
9987;DHT22;5033;46.310;11.214;2023-02-15T02:10:22;6.20;96.60
9987;DHT22;5033;46.310;11.214;2023-02-15T02:12:52;6.20;96.50
9987;DHT22;5033;46.310;11.214;2023-02-15T02:15:23;6.20;96.50
9987;DHT22;5033;46.310;11.214;2023-02-15T02:18:06;6.10;96.60
9987;DHT22;5033;46.310;11.214;2023-02-15T02:23:40;6.10;96.80
9987;DHT22;5033;46.310;11.214;2023-02-15T02:30:09;6.10;97.10
9987;DHT22;5033;46.310;11.214;2023-02-15T02:33:08;6.10;96.80
9987;DHT22;5033;46.310;11.214;2023-02-15T02:35:40;6.10;96.70
9987;DHT22;5033;46.310;11.214;2023-02-15T02:38:15;6.10;96.70
9987;DHT22;5033;46.310;11.214;2023-02-15T02:40:54;6.10;96.70
9987;DHT22;5033;46.310;11.214;2023-02-15T02:43:28;6.10;96.80
9987;DHT22;5033;46.310;11.214;2023-02-15T02:45:59;6.10;96.70
9987;DHT22;5033;46.310;11.214;2023-02-15T02:48:32;6.10;96.50
9987;DHT22;5033;46.310;11.214;2023-02-15T02:50:59;6.10;96.40
9987;DHT22;5033;46.310;11.214;2023-02-15T02:53:29;6.10;96.50
9987;DHT22;5033;46.310;11.214;2023-02-15T02:56:01;6.10;96.50
9987;DHT22;5033;46.310;11.214;2023-02-15T02:58:35;6.10;96.60
9987;DHT22;5033;46.310;11.214;2023-02-15T03:01:10;6.00;96.60
9987;DHT22;5033;46.310;11.214;2023-02-15T03:03:42;6.00;96.90
9987;DHT22;5033;46.310;11.214;2023-02-15T03:06:12;5.90;96.80
9987;DHT22;5033;46.310;11.214;2023-02-15T03:08:46;6.00;97.20
9987;DHT22;5033;46.310;11.214;2023-02-15T03:11:14;6.00;97.40
9987;DHT22;5033;46.310;11.214;2023-02-15T03:13:42;6.00;97.30
9987;DHT22;5033;46.310;11.214;2023-02-15T03:16:12;6.00;97.30
9987;DHT22;5033;46.310;11.214;2023-02-15T03:18:56;5.90;97.30
9987;DHT22;5033;46.310;11.214;2023-02-15T03:21:31;5.90;97.30
9987;DHT22;5033;46.310;11.214;2023-02-15T03:24:02;5.90;97.40
9987;DHT22;5033;46.310;11.214;2023-02-15T03:26:32;5.90;97.10
9987;DHT22;5033;46.310;11.214;2023-02-15T03:29:02;5.90;97.30
9987;DHT22;5033;46.310;11.214;2023-02-15T03:31:33;5.90;97.20
9987;DHT22;5033;46.310;11.214;2023-02-15T03:34:06;5.80;97.20
9987;DHT22;5033;46.310;11.214;2023-02-15T03:36:41;5.80;97.20
9987;DHT22;5033;46.310;11.214;2023-02-15T03:39:14;5.80;97.20
9987;DHT22;5033;46.310;11.214;2023-02-15T03:41:48;5.80;97.20
9987;DHT22;5033;46.310;11.214;2023-02-15T03:44:20;5.70;97.20
9987;DHT22;5033;46.310;11.214;2023-02-15T03:46:56;5.70;97.30
9987;DHT22;5033;46.310;11.214;2023-02-15T03:49:29;5.60;97.30
9987;DHT22;5033;46.310;11.214;2023-02-15T03:51:58;5.60;97.30
9987;DHT22;5033;46.310;11.214;2023-02-15T03:54:28;5.60;97.20
9987;DHT22;5033;46.310;11.214;2023-02-15T03:57:18;5.60;97.40
9987;DHT22;5033;46.310;11.214;2023-02-15T04:00:05;5.60;97.60
9987;DHT22;5033;46.310;11.214;2023-02-15T04:03:09;5.60;97.70
9987;DHT22;5033;46.310;11.214;2023-02-15T04:05:39;5.60;97.80
9987;DHT22;5033;46.310;11.214;2023-02-15T04:08:06;5.50;98.00
9987;DHT22;5033;46.310;11.214;2023-02-15T04:10:33;5.50;97.90
9987;DHT22;5033;46.310;11.214;2023-02-15T04:13:17;5.50;97.90
9987;DHT22;5033;46.310;11.214;2023-02-15T04:15:44;5.40;98.10
9987;DHT22;5033;46.310;11.214;2023-02-15T04:18:29;5.40;98.00
9987;DHT22;5033;46.310;11.214;2023-02-15T04:21:15;5.50;97.80
9987;DHT22;5033;46.310;11.214;2023-02-15T04:23:59;5.50;97.80
9987;DHT22;5033;46.310;11.214;2023-02-15T04:26:43;5.50;97.80
9987;DHT22;5033;46.310;11.214;2023-02-15T04:29:11;5.40;97.80
9987;DHT22;5033;46.310;11.214;2023-02-15T04:31:38;5.40;98.10
9987;DHT22;5033;46.310;11.214;2023-02-15T04:34:05;5.40;98.00
9987;DHT22;5033;46.310;11.214;2023-02-15T04:36:33;5.40;98.10
9987;DHT22;5033;46.310;11.214;2023-02-15T04:39:01;5.40;98.00
9987;DHT22;5033;46.310;11.214;2023-02-15T04:41:28;5.40;98.00
9987;DHT22;5033;46.310;11.214;2023-02-15T04:43:55;5.30;98.00
9987;DHT22;5033;46.310;11.214;2023-02-15T04:46:23;5.30;98.20
9987;DHT22;5033;46.310;11.214;2023-02-15T04:48:50;5.30;98.20
9987;DHT22;5033;46.310;11.214;2023-02-15T04:51:17;5.20;98.10
9987;DHT22;5033;46.310;11.214;2023-02-15T04:53:45;5.10;98.20
9987;DHT22;5033;46.310;11.214;2023-02-15T04:56:12;5.10;98.20
9987;DHT22;5033;46.310;11.214;2023-02-15T04:58:40;5.10;98.40
9987;DHT22;5033;46.310;11.214;2023-02-15T05:01:08;5.10;98.40
9987;DHT22;5033;46.310;11.214;2023-02-15T05:03:35;5.00;98.40
9987;DHT22;5033;46.310;11.214;2023-02-15T05:06:02;5.00;98.50
9987;DHT22;5033;46.310;11.214;2023-02-15T05:08:30;5.00;98.60
9987;DHT22;5033;46.310;11.214;2023-02-15T05:10:58;5.00;98.80
9987;DHT22;5033;46.310;11.214;2023-02-15T05:13:25;5.00;98.70
9987;DHT22;5033;46.310;11.214;2023-02-15T05:15:53;5.00;98.80
9987;DHT22;5033;46.310;11.214;2023-02-15T05:18:21;5.00;98.90
9987;DHT22;5033;46.310;11.214;2023-02-15T05:20:49;5.00;98.80
9987;DHT22;5033;46.310;11.214;2023-02-15T05:23:16;5.00;99.00
9987;DHT22;5033;46.310;11.214;2023-02-15T05:25:47;5.00;98.80
9987;DHT22;5033;46.310;11.214;2023-02-15T05:28:34;5.00;98.70
9987;DHT22;5033;46.310;11.214;2023-02-15T05:31:08;5.10;98.50
9987;DHT22;5033;46.310;11.214;2023-02-15T05:33:36;5.10;98.70
9987;DHT22;5033;46.310;11.214;2023-02-15T05:36:05;5.10;98.50
9987;DHT22;5033;46.310;11.214;2023-02-15T05:38:32;5.10;98.50
9987;DHT22;5033;46.310;11.214;2023-02-15T05:40:59;5.10;98.50
9987;DHT22;5033;46.310;11.214;2023-02-15T05:43:27;5.00;98.60
9987;DHT22;5033;46.310;11.214;2023-02-15T05:45:55;5.00;98.80
9987;DHT22;5033;46.310;11.214;2023-02-15T05:48:24;4.90;99.10
9987;DHT22;5033;46.310;11.214;2023-02-15T05:50:57;4.80;99.10
9987;DHT22;5033;46.310;11.214;2023-02-15T05:53:25;4.70;99.10
9987;DHT22;5033;46.310;11.214;2023-02-15T05:55:53;4.70;99.10
9987;DHT22;5033;46.310;11.214;2023-02-15T05:58:24;4.70;99.10
9987;DHT22;5033;46.310;11.214;2023-02-15T06:00:55;4.70;99.10
9987;DHT22;5033;46.310;11.214;2023-02-15T06:03:22;4.70;99.10
9987;DHT22;5033;46.310;11.214;2023-02-15T06:05:51;4.60;99.20
9987;DHT22;5033;46.310;11.214;2023-02-15T06:08:18;4.60;99.20
9987;DHT22;5033;46.310;11.214;2023-02-15T06:10:45;4.70;99.30
9987;DHT22;5033;46.310;11.214;2023-02-15T06:13:12;4.60;99.30
9987;DHT22;5033;46.310;11.214;2023-02-15T06:15:39;4.70;99.90
9987;DHT22;5033;46.310;11.214;2023-02-15T06:18:08;4.60;99.90
9987;DHT22;5033;46.310;11.214;2023-02-15T06:20:35;4.60;99.80
9987;DHT22;5033;46.310;11.214;2023-02-15T06:23:02;4.60;99.70
9987;DHT22;5033;46.310;11.214;2023-02-15T06:25:29;4.60;99.90
9987;DHT22;5033;46.310;11.214;2023-02-15T06:27:56;4.70;99.90
9987;DHT22;5033;46.310;11.214;2023-02-15T06:30:23;4.70;99.50
9987;DHT22;5033;46.310;11.214;2023-02-15T06:32:50;4.70;99.50
9987;DHT22;5033;46.310;11.214;2023-02-15T06:35:19;4.70;99.70
9987;DHT22;5033;46.310;11.214;2023-02-15T06:37:48;4.60;99.60
9987;DHT22;5033;46.310;11.214;2023-02-15T06:40:15;4.70;99.50
9987;DHT22;5033;46.310;11.214;2023-02-15T06:42:42;4.70;99.40
9987;DHT22;5033;46.310;11.214;2023-02-15T06:45:11;4.70;99.40
9987;DHT22;5033;46.310;11.214;2023-02-15T06:47:38;4.70;99.40
9987;DHT22;5033;46.310;11.214;2023-02-15T06:50:07;4.70;99.90
9987;DHT22;5033;46.310;11.214;2023-02-15T06:52:36;4.60;99.90
9987;DHT22;5033;46.310;11.214;2023-02-15T06:55:03;4.60;99.90
9987;DHT22;5033;46.310;11.214;2023-02-15T06:57:30;4.60;99.90
9987;DHT22;5033;46.310;11.214;2023-02-15T06:59:58;4.50;99.90
9987;DHT22;5033;46.310;11.214;2023-02-15T07:02:25;4.50;99.90
9987;DHT22;5033;46.310;11.214;2023-02-15T07:04:52;4.60;99.90
9987;DHT22;5033;46.310;11.214;2023-02-15T07:07:19;4.70;99.80
9987;DHT22;5033;46.310;11.214;2023-02-15T07:09:48;4.80;99.60
9987;DHT22;5033;46.310;11.214;2023-02-15T07:12:15;4.80;99.60
9987;DHT22;5033;46.310;11.214;2023-02-15T07:14:59;4.90;99.50
9987;DHT22;5033;46.310;11.214;2023-02-15T07:17:29;4.90;99.40
9987;DHT22;5033;46.310;11.214;2023-02-15T07:19:57;5.00;99.50
9987;DHT22;5033;46.310;11.214;2023-02-15T07:22:24;4.90;99.90
9987;DHT22;5033;46.310;11.214;2023-02-15T07:24:53;4.90;99.90
9987;DHT22;5033;46.310;11.214;2023-02-15T07:27:20;4.90;99.90
9987;DHT22;5033;46.310;11.214;2023-02-15T07:29:47;4.80;99.90
9987;DHT22;5033;46.310;11.214;2023-02-15T07:32:15;4.80;99.90
9987;DHT22;5033;46.310;11.214;2023-02-15T07:34:42;5.50;99.90
9987;DHT22;5033;46.310;11.214;2023-02-15T07:37:09;6.60;99.90
9987;DHT22;5033;46.310;11.214;2023-02-15T07:39:36;7.70;99.50
9987;DHT22;5033;46.310;11.214;2023-02-15T07:42:04;8.80;98.20
9987;DHT22;5033;46.310;11.214;2023-02-15T07:44:31;9.50;96.60
9987;DHT22;5033;46.310;11.214;2023-02-15T07:47:01;10.10;95.90
9987;DHT22;5033;46.310;11.214;2023-02-15T07:49:28;10.60;95.00
9987;DHT22;5033;46.310;11.214;2023-02-15T07:51:55;11.10;94.20
9987;DHT22;5033;46.310;11.214;2023-02-15T07:54:22;11.40;93.40
9987;DHT22;5033;46.310;11.214;2023-02-15T07:56:49;11.60;93.20
9987;DHT22;5033;46.310;11.214;2023-02-15T07:59:17;11.80;93.10
9987;DHT22;5033;46.310;11.214;2023-02-15T08:01:44;12.00;93.30
9987;DHT22;5033;46.310;11.214;2023-02-15T08:04:11;12.30;92.70
9987;DHT22;5033;46.310;11.214;2023-02-15T08:06:38;12.60;92.50
9987;DHT22;5033;46.310;11.214;2023-02-15T08:09:07;12.70;92.00
9987;DHT22;5033;46.310;11.214;2023-02-15T08:11:35;13.00;92.00
9987;DHT22;5033;46.310;11.214;2023-02-15T08:14:08;13.30;91.90
9987;DHT22;5033;46.310;11.214;2023-02-15T08:16:38;13.50;91.20
9987;DHT22;5033;46.310;11.214;2023-02-15T08:19:07;13.40;91.00
9987;DHT22;5033;46.310;11.214;2023-02-15T08:21:35;13.50;90.80
9987;DHT22;5033;46.310;11.214;2023-02-15T08:24:04;13.70;90.30
9987;DHT22;5033;46.310;11.214;2023-02-15T08:26:32;13.70;90.10
9987;DHT22;5033;46.310;11.214;2023-02-15T08:29:00;13.80;90.20
9987;DHT22;5033;46.310;11.214;2023-02-15T08:31:28;14.20;89.90
9987;DHT22;5033;46.310;11.214;2023-02-15T08:33:57;14.20;87.90
9987;DHT22;5033;46.310;11.214;2023-02-15T08:36:26;14.30;89.00
9987;DHT22;5033;46.310;11.214;2023-02-15T08:38:53;14.50;88.70
9987;DHT22;5033;46.310;11.214;2023-02-15T08:41:21;14.50;88.90
9987;DHT22;5033;46.310;11.214;2023-02-15T08:43:50;14.50;89.50
9987;DHT22;5033;46.310;11.214;2023-02-15T08:46:20;14.70;88.10
9987;DHT22;5033;46.310;11.214;2023-02-15T08:48:47;15.00;87.50
9987;DHT22;5033;46.310;11.214;2023-02-15T08:51:17;15.00;86.50
9987;DHT22;5033;46.310;11.214;2023-02-15T08:53:46;15.00;87.40
9987;DHT22;5033;46.310;11.214;2023-02-15T08:56:14;15.10;87.40
9987;DHT22;5033;46.310;11.214;2023-02-15T08:58:41;15.30;86.30
9987;DHT22;5033;46.310;11.214;2023-02-15T09:01:10;15.50;86.30
9987;DHT22;5033;46.310;11.214;2023-02-15T09:03:38;15.70;86.50
9987;DHT22;5033;46.310;11.214;2023-02-15T09:06:06;15.90;86.30
9987;DHT22;5033;46.310;11.214;2023-02-15T09:08:34;16.00;85.70
9987;DHT22;5033;46.310;11.214;2023-02-15T09:11:06;16.20;84.60
9987;DHT22;5033;46.310;11.214;2023-02-15T09:13:33;16.10;84.60
9987;DHT22;5033;46.310;11.214;2023-02-15T09:16:02;15.90;84.90
9987;DHT22;5033;46.310;11.214;2023-02-15T09:18:30;15.80;85.10
9987;DHT22;5033;46.310;11.214;2023-02-15T09:21:03;15.80;85.00
9987;DHT22;5033;46.310;11.214;2023-02-15T09:23:30;15.90;85.70
9987;DHT22;5033;46.310;11.214;2023-02-15T09:26:02;15.60;85.30
9987;DHT22;5033;46.310;11.214;2023-02-15T09:28:29;15.50;85.50
9987;DHT22;5033;46.310;11.214;2023-02-15T09:31:05;15.50;85.10
9987;DHT22;5033;46.310;11.214;2023-02-15T09:33:33;15.50;84.20
9987;DHT22;5033;46.310;11.214;2023-02-15T09:36:00;15.70;84.20
9987;DHT22;5033;46.310;11.214;2023-02-15T09:38:27;15.70;82.20
9987;DHT22;5033;46.310;11.214;2023-02-15T09:41:03;16.00;82.50
9987;DHT22;5033;46.310;11.214;2023-02-15T09:43:37;16.00;80.60
9987;DHT22;5033;46.310;11.214;2023-02-15T09:46:18;16.20;80.80
9987;DHT22;5033;46.310;11.214;2023-02-15T09:48:49;16.20;80.20
9987;DHT22;5033;46.310;11.214;2023-02-15T09:51:32;16.20;81.20
9987;DHT22;5033;46.310;11.214;2023-02-15T09:54:25;16.50;80.90
9987;DHT22;5033;46.310;11.214;2023-02-15T09:57:03;16.80;80.00
9987;DHT22;5033;46.310;11.214;2023-02-15T09:59:36;16.90;80.50
9987;DHT22;5033;46.310;11.214;2023-02-15T10:02:19;16.90;79.80
9987;DHT22;5033;46.310;11.214;2023-02-15T10:04:57;16.80;80.10
9987;DHT22;5033;46.310;11.214;2023-02-15T10:07:38;16.80;80.40
9987;DHT22;5033;46.310;11.214;2023-02-15T10:10:17;17.20;79.80
9987;DHT22;5033;46.310;11.214;2023-02-15T10:13:00;17.50;80.00
9987;DHT22;5033;46.310;11.214;2023-02-15T10:15:40;17.60;77.40
9987;DHT22;5033;46.310;11.214;2023-02-15T10:18:27;17.50;77.10
9987;DHT22;5033;46.310;11.214;2023-02-15T10:21:00;17.50;77.60
9987;DHT22;5033;46.310;11.214;2023-02-15T10:23:42;17.40;76.50
9987;DHT22;5033;46.310;11.214;2023-02-15T10:26:18;17.30;76.90
9987;DHT22;5033;46.310;11.214;2023-02-15T10:28:50;17.40;77.90
9987;DHT22;5033;46.310;11.214;2023-02-15T10:31:23;17.50;77.60
9987;DHT22;5033;46.310;11.214;2023-02-15T10:34:00;17.60;76.90
9987;DHT22;5033;46.310;11.214;2023-02-15T10:36:42;17.60;76.70
9987;DHT22;5033;46.310;11.214;2023-02-15T10:39:18;17.70;75.10
9987;DHT22;5033;46.310;11.214;2023-02-15T10:41:52;17.40;74.40
9987;DHT22;5033;46.310;11.214;2023-02-15T10:44:33;17.40;75.10
9987;DHT22;5033;46.310;11.214;2023-02-15T10:47:16;17.30;75.40
9987;DHT22;5033;46.310;11.214;2023-02-15T10:50:24;17.20;75.30
9987;DHT22;5033;46.310;11.214;2023-02-15T10:53:08;17.20;75.00
9987;DHT22;5033;46.310;11.214;2023-02-15T10:55:47;17.30;76.10
9987;DHT22;5033;46.310;11.214;2023-02-15T10:58:29;17.60;75.60
9987;DHT22;5033;46.310;11.214;2023-02-15T11:01:05;17.90;75.00
9987;DHT22;5033;46.310;11.214;2023-02-15T11:03:46;18.00;75.40
9987;DHT22;5033;46.310;11.214;2023-02-15T11:06:18;18.00;73.70
9987;DHT22;5033;46.310;11.214;2023-02-15T11:08:48;18.00;74.40
9987;DHT22;5033;46.310;11.214;2023-02-15T11:11:22;18.00;74.20
9987;DHT22;5033;46.310;11.214;2023-02-15T11:13:52;17.90;72.60
9987;DHT22;5033;46.310;11.214;2023-02-15T11:16:25;17.60;73.00
9987;DHT22;5033;46.310;11.214;2023-02-15T11:18:57;17.80;74.40
9987;DHT22;5033;46.310;11.214;2023-02-15T11:21:28;18.00;73.10
9987;DHT22;5033;46.310;11.214;2023-02-15T11:23:59;18.10;73.10
9987;DHT22;5033;46.310;11.214;2023-02-15T11:26:33;18.40;73.10
9987;DHT22;5033;46.310;11.214;2023-02-15T11:29:06;18.30;71.10
9987;DHT22;5033;46.310;11.214;2023-02-15T11:31:42;18.10;69.80
9987;DHT22;5033;46.310;11.214;2023-02-15T11:34:15;17.90;71.10
9987;DHT22;5033;46.310;11.214;2023-02-15T11:36:46;17.70;70.30
9987;DHT22;5033;46.310;11.214;2023-02-15T11:39:17;17.50;70.40
9987;DHT22;5033;46.310;11.214;2023-02-15T11:41:48;17.60;71.30
9987;DHT22;5033;46.310;11.214;2023-02-15T11:44:20;17.80;70.90
9987;DHT22;5033;46.310;11.214;2023-02-15T11:46:50;17.70;70.80
9987;DHT22;5033;46.310;11.214;2023-02-15T11:49:23;17.70;71.30
9987;DHT22;5033;46.310;11.214;2023-02-15T11:51:53;17.80;71.30
9987;DHT22;5033;46.310;11.214;2023-02-15T11:54:26;17.90;71.30
9987;DHT22;5033;46.310;11.214;2023-02-15T11:56:55;18.20;71.30
9987;DHT22;5033;46.310;11.214;2023-02-15T11:59:29;18.30;70.70
9987;DHT22;5033;46.310;11.214;2023-02-15T12:01:58;18.40;70.00
9987;DHT22;5033;46.310;11.214;2023-02-15T12:04:29;18.50;70.10
9987;DHT22;5033;46.310;11.214;2023-02-15T12:07:00;18.50;70.10
9987;DHT22;5033;46.310;11.214;2023-02-15T12:09:33;18.40;69.70
9987;DHT22;5033;46.310;11.214;2023-02-15T12:12:21;18.10;71.10
9987;DHT22;5033;46.310;11.214;2023-02-15T12:14:50;18.10;70.00
9987;DHT22;5033;46.310;11.214;2023-02-15T12:17:21;17.90;70.60
9987;DHT22;5033;46.310;11.214;2023-02-15T12:19:50;17.60;70.20
9987;DHT22;5033;46.310;11.214;2023-02-15T12:22:22;17.70;70.90
9987;DHT22;5033;46.310;11.214;2023-02-15T12:24:52;17.70;70.60
9987;DHT22;5033;46.310;11.214;2023-02-15T12:27:23;17.70;70.40
9987;DHT22;5033;46.310;11.214;2023-02-15T12:29:53;17.80;71.10
9987;DHT22;5033;46.310;11.214;2023-02-15T12:32:25;17.80;71.00
9987;DHT22;5033;46.310;11.214;2023-02-15T12:34:56;17.90;70.70
9987;DHT22;5033;46.310;11.214;2023-02-15T12:37:29;18.00;70.90
9987;DHT22;5033;46.310;11.214;2023-02-15T12:39:58;17.90;71.00
9987;DHT22;5033;46.310;11.214;2023-02-15T12:42:28;18.10;71.30
9987;DHT22;5033;46.310;11.214;2023-02-15T12:44:59;18.20;70.80
9987;DHT22;5033;46.310;11.214;2023-02-15T12:47:29;18.20;70.60
9987;DHT22;5033;46.310;11.214;2023-02-15T12:50:22;18.30;71.20
9987;DHT22;5033;46.310;11.214;2023-02-15T12:53:02;18.40;69.80
9987;DHT22;5033;46.310;11.214;2023-02-15T12:55:32;18.30;71.70
9987;DHT22;5033;46.310;11.214;2023-02-15T12:58:14;18.10;69.80
9987;DHT22;5033;46.310;11.214;2023-02-15T13:00:43;18.10;70.30
9987;DHT22;5033;46.310;11.214;2023-02-15T13:03:18;18.00;71.30
9987;DHT22;5033;46.310;11.214;2023-02-15T13:05:47;18.00;70.30
9987;DHT22;5033;46.310;11.214;2023-02-15T13:08:18;18.10;70.80
9987;DHT22;5033;46.310;11.214;2023-02-15T13:10:54;18.20;71.20
9987;DHT22;5033;46.310;11.214;2023-02-15T13:13:24;18.20;70.00
9987;DHT22;5033;46.310;11.214;2023-02-15T13:15:55;18.30;70.80
9987;DHT22;5033;46.310;11.214;2023-02-15T13:18:30;18.30;71.60
9987;DHT22;5033;46.310;11.214;2023-02-15T13:21:00;18.30;69.90
9987;DHT22;5033;46.310;11.214;2023-02-15T13:23:31;18.10;70.40
9987;DHT22;5033;46.310;11.214;2023-02-15T13:25:59;18.20;70.80
9987;DHT22;5033;46.310;11.214;2023-02-15T13:28:36;18.20;70.30
9987;DHT22;5033;46.310;11.214;2023-02-15T13:31:11;18.10;69.90
9987;DHT22;5033;46.310;11.214;2023-02-15T13:33:43;18.20;70.30
9987;DHT22;5033;46.310;11.214;2023-02-15T13:36:17;18.30;70.60
9987;DHT22;5033;46.310;11.214;2023-02-15T13:38:57;18.40;70.00
9987;DHT22;5033;46.310;11.214;2023-02-15T13:41:32;18.40;69.70
9987;DHT22;5033;46.310;11.214;2023-02-15T13:44:10;18.30;69.40
9987;DHT22;5033;46.310;11.214;2023-02-15T13:46:57;18.30;70.70
9987;DHT22;5033;46.310;11.214;2023-02-15T13:52:29;18.30;69.90
9987;DHT22;5033;46.310;11.214;2023-02-15T13:55:11;18.10;69.40
9987;DHT22;5033;46.310;11.214;2023-02-15T13:57:55;18.10;69.20
9987;DHT22;5033;46.310;11.214;2023-02-15T14:00:29;18.20;69.50
9987;DHT22;5033;46.310;11.214;2023-02-15T14:03:25;18.30;69.70
9987;DHT22;5033;46.310;11.214;2023-02-15T14:06:14;18.30;68.30
9987;DHT22;5033;46.310;11.214;2023-02-15T14:08:58;18.30;68.60
9987;DHT22;5033;46.310;11.214;2023-02-15T14:11:36;18.20;68.20
9987;DHT22;5033;46.310;11.214;2023-02-15T14:14:46;18.10;68.80
9987;DHT22;5033;46.310;11.214;2023-02-15T14:17:20;17.80;68.80
9987;DHT22;5033;46.310;11.214;2023-02-15T14:19:53;17.80;69.60
9987;DHT22;5033;46.310;11.214;2023-02-15T14:22:28;17.70;70.00
9987;DHT22;5033;46.310;11.214;2023-02-15T14:25:12;17.70;70.20
9987;DHT22;5033;46.310;11.214;2023-02-15T14:27:50;17.90;69.80
9987;DHT22;5033;46.310;11.214;2023-02-15T14:30:22;17.80;69.50
9987;DHT22;5033;46.310;11.214;2023-02-15T14:32:52;17.80;69.80
9987;DHT22;5033;46.310;11.214;2023-02-15T14:35:23;17.90;69.80
9987;DHT22;5033;46.310;11.214;2023-02-15T14:37:57;17.80;69.10
9987;DHT22;5033;46.310;11.214;2023-02-15T14:40:33;17.80;70.10
9987;DHT22;5033;46.310;11.214;2023-02-15T14:43:41;17.80;69.40
9987;DHT22;5033;46.310;11.214;2023-02-15T14:46:20;17.80;69.40
9987;DHT22;5033;46.310;11.214;2023-02-15T14:48:51;17.70;69.30
9987;DHT22;5033;46.310;11.214;2023-02-15T14:54:52;17.50;68.60
9987;DHT22;5033;46.310;11.214;2023-02-15T14:57:29;17.20;68.90
9987;DHT22;5033;46.310;11.214;2023-02-15T14:59:59;16.90;69.50
9987;DHT22;5033;46.310;11.214;2023-02-15T15:02:29;16.40;70.80
9987;DHT22;5033;46.310;11.214;2023-02-15T15:05:00;16.30;72.60
9987;DHT22;5033;46.310;11.214;2023-02-15T15:07:36;16.30;73.10
9987;DHT22;5033;46.310;11.214;2023-02-15T15:10:06;16.20;73.50
9987;DHT22;5033;46.310;11.214;2023-02-15T15:12:43;16.10;74.00
9987;DHT22;5033;46.310;11.214;2023-02-15T15:15:32;16.00;75.00
9987;DHT22;5033;46.310;11.214;2023-02-15T15:18:00;15.80;75.60
9987;DHT22;5033;46.310;11.214;2023-02-15T15:20:41;15.70;76.30
9987;DHT22;5033;46.310;11.214;2023-02-15T15:23:41;15.60;76.70
9987;DHT22;5033;46.310;11.214;2023-02-15T15:26:28;15.40;77.10
9987;DHT22;5033;46.310;11.214;2023-02-15T15:29:01;15.30;76.90
9987;DHT22;5033;46.310;11.214;2023-02-15T15:31:41;15.20;77.50
9987;DHT22;5033;46.310;11.214;2023-02-15T15:34:24;15.10;77.60
9987;DHT22;5033;46.310;11.214;2023-02-15T15:40:33;14.80;77.50
9987;DHT22;5033;46.310;11.214;2023-02-15T15:46:34;14.50;77.70
9987;DHT22;5033;46.310;11.214;2023-02-15T15:49:09;14.50;77.70
9987;DHT22;5033;46.310;11.214;2023-02-15T15:51:40;14.30;77.70
9987;DHT22;5033;46.310;11.214;2023-02-15T15:54:14;14.20;77.70
9987;DHT22;5033;46.310;11.214;2023-02-15T15:56:44;14.20;77.70
9987;DHT22;5033;46.310;11.214;2023-02-15T15:59:18;14.10;77.60
9987;DHT22;5033;46.310;11.214;2023-02-15T16:01:52;14.00;76.70
9987;DHT22;5033;46.310;11.214;2023-02-15T16:04:25;13.90;77.30
9987;DHT22;5033;46.310;11.214;2023-02-15T16:06:52;13.80;77.00
9987;DHT22;5033;46.310;11.214;2023-02-15T16:09:21;13.70;76.60
9987;DHT22;5033;46.310;11.214;2023-02-15T16:11:50;13.70;76.70
9987;DHT22;5033;46.310;11.214;2023-02-15T16:14:25;13.60;76.80
9987;DHT22;5033;46.310;11.214;2023-02-15T16:16:56;13.60;76.70
9987;DHT22;5033;46.310;11.214;2023-02-15T16:19:27;13.50;76.90
9987;DHT22;5033;46.310;11.214;2023-02-15T16:21:55;13.40;77.30
9987;DHT22;5033;46.310;11.214;2023-02-15T16:27:54;13.30;77.10
9987;DHT22;5033;46.310;11.214;2023-02-15T16:30:27;13.30;77.50
9987;DHT22;5033;46.310;11.214;2023-02-15T16:33:06;13.20;78.20
9987;DHT22;5033;46.310;11.214;2023-02-15T16:35:34;13.20;79.00
9987;DHT22;5033;46.310;11.214;2023-02-15T16:38:01;13.10;78.80
9987;DHT22;5033;46.310;11.214;2023-02-15T16:40:46;13.10;78.10
9987;DHT22;5033;46.310;11.214;2023-02-15T16:43:18;13.00;77.70
9987;DHT22;5033;46.310;11.214;2023-02-15T16:45:47;12.90;77.70
9987;DHT22;5033;46.310;11.214;2023-02-15T16:48:20;12.90;77.40